sensor_id;sensor_type;location;lat;lon;timestamp;P1;durP1;ratioP1;P2;durP2;ratioP2
57395;SDS011;43222;52.912;6.940;2023-07-13T00:01:19;8.73;;;2.10;;
57395;SDS011;43222;52.912;6.940;2023-07-13T00:03:47;7.85;;;2.13;;
57395;SDS011;43222;52.912;6.940;2023-07-13T00:06:13;9.93;;;2.00;;
57395;SDS011;43222;52.912;6.940;2023-07-13T00:08:40;8.68;;;2.17;;
57395;SDS011;43222;52.912;6.940;2023-07-13T00:11:06;10.02;;;1.98;;
57395;SDS011;43222;52.912;6.940;2023-07-13T00:13:32;11.25;;;2.58;;
57395;SDS011;43222;52.912;6.940;2023-07-13T00:15:58;14.07;;;2.58;;
57395;SDS011;43222;52.912;6.940;2023-07-13T00:18:26;8.85;;;2.25;;
57395;SDS011;43222;52.912;6.940;2023-07-13T00:20:55;9.77;;;2.33;;
57395;SDS011;43222;52.912;6.940;2023-07-13T00:23:30;10.15;;;2.80;;
57395;SDS011;43222;52.912;6.940;2023-07-13T00:25:56;12.27;;;2.40;;
57395;SDS011;43222;52.912;6.940;2023-07-13T00:28:22;10.00;;;2.20;;
57395;SDS011;43222;52.912;6.940;2023-07-13T00:30:48;11.00;;;2.35;;
57395;SDS011;43222;52.912;6.940;2023-07-13T00:33:15;12.98;;;2.38;;
57395;SDS011;43222;52.912;6.940;2023-07-13T00:35:41;11.98;;;2.80;;
57395;SDS011;43222;52.912;6.940;2023-07-13T00:38:09;12.90;;;2.65;;
57395;SDS011;43222;52.912;6.940;2023-07-13T00:40:35;11.30;;;2.25;;
57395;SDS011;43222;52.912;6.940;2023-07-13T00:43:01;11.02;;;2.30;;
57395;SDS011;43222;52.912;6.940;2023-07-13T00:47:54;11.00;;;2.28;;
57395;SDS011;43222;52.912;6.940;2023-07-13T00:50:21;9.38;;;2.40;;
57395;SDS011;43222;52.912;6.940;2023-07-13T00:52:50;10.45;;;2.35;;
57395;SDS011;43222;52.912;6.940;2023-07-13T00:55:18;8.50;;;2.57;;
57395;SDS011;43222;52.912;6.940;2023-07-13T00:57:44;10.25;;;2.47;;
57395;SDS011;43222;52.912;6.940;2023-07-13T01:00:11;7.35;;;2.17;;
57395;SDS011;43222;52.912;6.940;2023-07-13T01:02:38;14.00;;;2.60;;
57395;SDS011;43222;52.912;6.940;2023-07-13T01:05:14;10.77;;;2.42;;
57395;SDS011;43222;52.912;6.940;2023-07-13T01:07:41;11.82;;;2.53;;
57395;SDS011;43222;52.912;6.940;2023-07-13T01:10:08;11.43;;;2.72;;
57395;SDS011;43222;52.912;6.940;2023-07-13T01:12:34;9.25;;;2.33;;
57395;SDS011;43222;52.912;6.940;2023-07-13T01:15:02;12.38;;;2.60;;
57395;SDS011;43222;52.912;6.940;2023-07-13T01:17:29;11.25;;;2.47;;
57395;SDS011;43222;52.912;6.940;2023-07-13T01:19:56;12.30;;;2.63;;
57395;SDS011;43222;52.912;6.940;2023-07-13T01:22:22;10.23;;;2.53;;
57395;SDS011;43222;52.912;6.940;2023-07-13T01:24:52;13.15;;;2.63;;
57395;SDS011;43222;52.912;6.940;2023-07-13T01:27:23;9.52;;;2.60;;
57395;SDS011;43222;52.912;6.940;2023-07-13T01:29:53;17.08;;;3.58;;
57395;SDS011;43222;52.912;6.940;2023-07-13T01:32:28;10.18;;;2.60;;
57395;SDS011;43222;52.912;6.940;2023-07-13T01:34:56;8.85;;;2.63;;
57395;SDS011;43222;52.912;6.940;2023-07-13T01:37:23;12.45;;;2.70;;
57395;SDS011;43222;52.912;6.940;2023-07-13T01:39:50;12.32;;;2.58;;
57395;SDS011;43222;52.912;6.940;2023-07-13T01:42:16;12.23;;;2.55;;
57395;SDS011;43222;52.912;6.940;2023-07-13T01:44:43;12.18;;;3.10;;
57395;SDS011;43222;52.912;6.940;2023-07-13T01:47:09;12.55;;;2.72;;
57395;SDS011;43222;52.912;6.940;2023-07-13T01:49:35;13.18;;;2.78;;
57395;SDS011;43222;52.912;6.940;2023-07-13T01:52:03;8.90;;;2.35;;
57395;SDS011;43222;52.912;6.940;2023-07-13T01:54:29;13.15;;;2.60;;
57395;SDS011;43222;52.912;6.940;2023-07-13T01:56:55;14.20;;;2.55;;
57395;SDS011;43222;52.912;6.940;2023-07-13T01:59:21;11.15;;;2.85;;
57395;SDS011;43222;52.912;6.940;2023-07-13T02:01:47;12.15;;;2.70;;
57395;SDS011;43222;52.912;6.940;2023-07-13T02:04:13;12.77;;;2.88;;
57395;SDS011;43222;52.912;6.940;2023-07-13T02:06:40;12.32;;;2.80;;
57395;SDS011;43222;52.912;6.940;2023-07-13T02:09:06;11.98;;;3.05;;
57395;SDS011;43222;52.912;6.940;2023-07-13T02:11:32;10.88;;;2.50;;
57395;SDS011;43222;52.912;6.940;2023-07-13T02:13:59;11.93;;;2.58;;
57395;SDS011;43222;52.912;6.940;2023-07-13T02:16:26;12.23;;;2.90;;
57395;SDS011;43222;52.912;6.940;2023-07-13T02:18:52;9.63;;;2.83;;
57395;SDS011;43222;52.912;6.940;2023-07-13T02:21:20;14.05;;;3.05;;
57395;SDS011;43222;52.912;6.940;2023-07-13T02:23:46;10.82;;;3.13;;
57395;SDS011;43222;52.912;6.940;2023-07-13T02:26:13;13.95;;;3.63;;
57395;SDS011;43222;52.912;6.940;2023-07-13T02:28:39;13.57;;;3.15;;
57395;SDS011;43222;52.912;6.940;2023-07-13T02:31:06;12.27;;;2.72;;
57395;SDS011;43222;52.912;6.940;2023-07-13T02:33:32;8.95;;;2.63;;
57395;SDS011;43222;52.912;6.940;2023-07-13T02:35:58;14.05;;;2.92;;
57395;SDS011;43222;52.912;6.940;2023-07-13T02:38:24;12.90;;;2.78;;
57395;SDS011;43222;52.912;6.940;2023-07-13T02:40:51;11.25;;;3.08;;
57395;SDS011;43222;52.912;6.940;2023-07-13T02:43:17;14.43;;;2.78;;
57395;SDS011;43222;52.912;6.940;2023-07-13T02:45:43;12.70;;;2.75;;
57395;SDS011;43222;52.912;6.940;2023-07-13T02:48:09;12.27;;;2.83;;
57395;SDS011;43222;52.912;6.940;2023-07-13T02:50:36;13.15;;;3.05;;
57395;SDS011;43222;52.912;6.940;2023-07-13T02:53:02;11.43;;;2.53;;
57395;SDS011;43222;52.912;6.940;2023-07-13T02:55:28;14.05;;;2.65;;
57395;SDS011;43222;52.912;6.940;2023-07-13T02:57:54;7.82;;;2.55;;
57395;SDS011;43222;52.912;6.940;2023-07-13T03:00:20;16.67;;;3.15;;
57395;SDS011;43222;52.912;6.940;2023-07-13T03:02:47;11.88;;;2.90;;
57395;SDS011;43222;52.912;6.940;2023-07-13T03:05:13;11.02;;;3.00;;
57395;SDS011;43222;52.912;6.940;2023-07-13T03:07:40;14.13;;;2.83;;
57395;SDS011;43222;52.912;6.940;2023-07-13T03:10:06;10.73;;;2.88;;
57395;SDS011;43222;52.912;6.940;2023-07-13T03:12:33;14.32;;;3.42;;
57395;SDS011;43222;52.912;6.940;2023-07-13T03:14:59;13.38;;;3.13;;
57395;SDS011;43222;52.912;6.940;2023-07-13T03:17:25;13.27;;;3.00;;
57395;SDS011;43222;52.912;6.940;2023-07-13T03:19:51;12.82;;;3.03;;
57395;SDS011;43222;52.912;6.940;2023-07-13T03:22:18;12.82;;;3.45;;
57395;SDS011;43222;52.912;6.940;2023-07-13T03:24:44;12.30;;;2.90;;
57395;SDS011;43222;52.912;6.940;2023-07-13T03:27:11;16.05;;;3.70;;
57395;SDS011;43222;52.912;6.940;2023-07-13T03:29:37;14.05;;;3.33;;
57395;SDS011;43222;52.912;6.940;2023-07-13T03:32:03;13.65;;;3.40;;
57395;SDS011;43222;52.912;6.940;2023-07-13T03:34:29;12.80;;;2.95;;
57395;SDS011;43222;52.912;6.940;2023-07-13T03:36:56;14.63;;;3.22;;
57395;SDS011;43222;52.912;6.940;2023-07-13T03:39:22;16.50;;;3.30;;
57395;SDS011;43222;52.912;6.940;2023-07-13T03:41:49;16.42;;;3.40;;
57395;SDS011;43222;52.912;6.940;2023-07-13T03:44:15;17.35;;;3.05;;
57395;SDS011;43222;52.912;6.940;2023-07-13T03:46:42;13.07;;;2.97;;
57395;SDS011;43222;52.912;6.940;2023-07-13T03:49:08;15.52;;;3.35;;
57395;SDS011;43222;52.912;6.940;2023-07-13T03:51:34;14.98;;;3.78;;
57395;SDS011;43222;52.912;6.940;2023-07-13T03:54:01;13.98;;;3.00;;
57395;SDS011;43222;52.912;6.940;2023-07-13T03:56:27;12.95;;;3.38;;
57395;SDS011;43222;52.912;6.940;2023-07-13T03:58:55;14.85;;;3.22;;
57395;SDS011;43222;52.912;6.940;2023-07-13T04:01:22;17.48;;;3.08;;
57395;SDS011;43222;52.912;6.940;2023-07-13T04:03:48;11.55;;;3.00;;
57395;SDS011;43222;52.912;6.940;2023-07-13T04:06:16;14.10;;;2.97;;
57395;SDS011;43222;52.912;6.940;2023-07-13T04:08:50;12.07;;;3.30;;
57395;SDS011;43222;52.912;6.940;2023-07-13T04:11:18;14.00;;;3.40;;
57395;SDS011;43222;52.912;6.940;2023-07-13T04:13:44;14.18;;;3.83;;
57395;SDS011;43222;52.912;6.940;2023-07-13T04:16:10;17.42;;;3.60;;
57395;SDS011;43222;52.912;6.940;2023-07-13T04:18:37;13.15;;;3.10;;
57395;SDS011;43222;52.912;6.940;2023-07-13T04:21:03;14.63;;;3.58;;
57395;SDS011;43222;52.912;6.940;2023-07-13T04:23:29;18.92;;;3.90;;
57395;SDS011;43222;52.912;6.940;2023-07-13T04:25:58;15.93;;;3.47;;
57395;SDS011;43222;52.912;6.940;2023-07-13T04:28:25;16.80;;;3.67;;
57395;SDS011;43222;52.912;6.940;2023-07-13T04:30:51;16.10;;;3.35;;
57395;SDS011;43222;52.912;6.940;2023-07-13T04:33:18;11.05;;;3.35;;
57395;SDS011;43222;52.912;6.940;2023-07-13T04:35:50;12.35;;;3.72;;
57395;SDS011;43222;52.912;6.940;2023-07-13T04:38:25;14.23;;;3.70;;
57395;SDS011;43222;52.912;6.940;2023-07-13T04:40:53;15.05;;;3.67;;
57395;SDS011;43222;52.912;6.940;2023-07-13T04:43:19;13.43;;;3.55;;
57395;SDS011;43222;52.912;6.940;2023-07-13T04:45:45;11.75;;;3.50;;
57395;SDS011;43222;52.912;6.940;2023-07-13T04:48:12;14.23;;;3.85;;
57395;SDS011;43222;52.912;6.940;2023-07-13T04:50:38;15.85;;;3.85;;
57395;SDS011;43222;52.912;6.940;2023-07-13T04:53:04;15.20;;;3.97;;
57395;SDS011;43222;52.912;6.940;2023-07-13T04:55:30;13.02;;;3.47;;
57395;SDS011;43222;52.912;6.940;2023-07-13T04:57:57;14.32;;;3.55;;
57395;SDS011;43222;52.912;6.940;2023-07-13T05:00:24;9.68;;;3.35;;
57395;SDS011;43222;52.912;6.940;2023-07-13T05:02:50;13.88;;;3.53;;
57395;SDS011;43222;52.912;6.940;2023-07-13T05:05:16;11.20;;;3.35;;
57395;SDS011;43222;52.912;6.940;2023-07-13T05:07:43;15.25;;;3.80;;
57395;SDS011;43222;52.912;6.940;2023-07-13T05:10:09;13.55;;;3.80;;
57395;SDS011;43222;52.912;6.940;2023-07-13T05:12:35;10.75;;;3.78;;
57395;SDS011;43222;52.912;6.940;2023-07-13T05:15:01;14.30;;;3.83;;
57395;SDS011;43222;52.912;6.940;2023-07-13T05:17:28;12.82;;;3.72;;
57395;SDS011;43222;52.912;6.940;2023-07-13T05:19:54;12.50;;;3.67;;
57395;SDS011;43222;52.912;6.940;2023-07-13T05:22:20;14.20;;;3.78;;
57395;SDS011;43222;52.912;6.940;2023-07-13T05:24:46;9.13;;;3.45;;
57395;SDS011;43222;52.912;6.940;2023-07-13T05:27:12;14.10;;;3.75;;
57395;SDS011;43222;52.912;6.940;2023-07-13T05:29:38;14.90;;;3.88;;
57395;SDS011;43222;52.912;6.940;2023-07-13T05:32:05;16.45;;;4.00;;
57395;SDS011;43222;52.912;6.940;2023-07-13T05:34:31;17.35;;;4.25;;
57395;SDS011;43222;52.912;6.940;2023-07-13T05:36:57;16.45;;;3.80;;
57395;SDS011;43222;52.912;6.940;2023-07-13T05:39:23;12.48;;;3.47;;
57395;SDS011;43222;52.912;6.940;2023-07-13T05:41:51;16.02;;;3.78;;
57395;SDS011;43222;52.912;6.940;2023-07-13T05:44:17;16.45;;;3.67;;
57395;SDS011;43222;52.912;6.940;2023-07-13T05:46:44;15.27;;;3.70;;
57395;SDS011;43222;52.912;6.940;2023-07-13T05:49:10;13.93;;;3.60;;
57395;SDS011;43222;52.912;6.940;2023-07-13T05:51:36;9.73;;;2.70;;
57395;SDS011;43222;52.912;6.940;2023-07-13T05:54:03;12.77;;;3.75;;
57395;SDS011;43222;52.912;6.940;2023-07-13T05:56:29;11.98;;;3.55;;
57395;SDS011;43222;52.912;6.940;2023-07-13T05:58:58;13.70;;;3.47;;
57395;SDS011;43222;52.912;6.940;2023-07-13T06:01:24;11.38;;;2.97;;
57395;SDS011;43222;52.912;6.940;2023-07-13T06:03:50;11.30;;;3.13;;
57395;SDS011;43222;52.912;6.940;2023-07-13T06:06:17;12.50;;;3.40;;
57395;SDS011;43222;52.912;6.940;2023-07-13T06:08:43;10.30;;;3.08;;
57395;SDS011;43222;52.912;6.940;2023-07-13T06:11:13;10.98;;;2.78;;
57395;SDS011;43222;52.912;6.940;2023-07-13T06:13:40;12.73;;;3.22;;
57395;SDS011;43222;52.912;6.940;2023-07-13T06:16:06;12.00;;;2.97;;
57395;SDS011;43222;52.912;6.940;2023-07-13T06:18:34;11.27;;;2.80;;
57395;SDS011;43222;52.912;6.940;2023-07-13T06:21:00;11.85;;;3.67;;
57395;SDS011;43222;52.912;6.940;2023-07-13T06:23:26;12.07;;;3.30;;
57395;SDS011;43222;52.912;6.940;2023-07-13T06:25:53;10.52;;;3.13;;
57395;SDS011;43222;52.912;6.940;2023-07-13T06:28:19;10.32;;;2.83;;
57395;SDS011;43222;52.912;6.940;2023-07-13T06:30:45;11.38;;;2.70;;
57395;SDS011;43222;52.912;6.940;2023-07-13T06:33:11;10.77;;;2.90;;
57395;SDS011;43222;52.912;6.940;2023-07-13T06:35:37;9.65;;;2.90;;
57395;SDS011;43222;52.912;6.940;2023-07-13T06:38:03;11.60;;;3.08;;
57395;SDS011;43222;52.912;6.940;2023-07-13T06:40:30;13.27;;;3.63;;
57395;SDS011;43222;52.912;6.940;2023-07-13T06:42:56;12.15;;;2.85;;
57395;SDS011;43222;52.912;6.940;2023-07-13T06:45:22;11.13;;;2.90;;
57395;SDS011;43222;52.912;6.940;2023-07-13T06:47:49;11.52;;;2.90;;
57395;SDS011;43222;52.912;6.940;2023-07-13T06:50:15;8.88;;;3.00;;
57395;SDS011;43222;52.912;6.940;2023-07-13T06:52:41;8.50;;;2.63;;
57395;SDS011;43222;52.912;6.940;2023-07-13T06:55:07;10.05;;;2.85;;
57395;SDS011;43222;52.912;6.940;2023-07-13T06:57:33;12.68;;;3.20;;
57395;SDS011;43222;52.912;6.940;2023-07-13T06:59:59;12.85;;;2.85;;
57395;SDS011;43222;52.912;6.940;2023-07-13T07:02:25;11.93;;;3.10;;
57395;SDS011;43222;52.912;6.940;2023-07-13T07:04:52;14.43;;;3.00;;
57395;SDS011;43222;52.912;6.940;2023-07-13T07:07:19;11.75;;;3.35;;
57395;SDS011;43222;52.912;6.940;2023-07-13T07:09:45;13.10;;;3.50;;
57395;SDS011;43222;52.912;6.940;2023-07-13T07:12:11;9.52;;;2.60;;
57395;SDS011;43222;52.912;6.940;2023-07-13T07:14:37;9.43;;;2.80;;
57395;SDS011;43222;52.912;6.940;2023-07-13T07:17:03;11.57;;;3.08;;
57395;SDS011;43222;52.912;6.940;2023-07-13T07:19:30;10.57;;;3.28;;
57395;SDS011;43222;52.912;6.940;2023-07-13T07:21:56;11.77;;;3.00;;
57395;SDS011;43222;52.912;6.940;2023-07-13T07:24:22;10.35;;;2.80;;
57395;SDS011;43222;52.912;6.940;2023-07-13T07:26:48;12.60;;;2.97;;
57395;SDS011;43222;52.912;6.940;2023-07-13T07:29:15;11.80;;;3.00;;
57395;SDS011;43222;52.912;6.940;2023-07-13T07:31:41;10.30;;;2.90;;
57395;SDS011;43222;52.912;6.940;2023-07-13T07:34:07;8.30;;;2.50;;
57395;SDS011;43222;52.912;6.940;2023-07-13T07:36:33;9.15;;;2.60;;
57395;SDS011;43222;52.912;6.940;2023-07-13T07:39:00;10.52;;;3.03;;
57395;SDS011;43222;52.912;6.940;2023-07-13T07:41:26;12.10;;;2.90;;
57395;SDS011;43222;52.912;6.940;2023-07-13T07:43:52;11.32;;;2.75;;
57395;SDS011;43222;52.912;6.940;2023-07-13T07:46:18;10.50;;;3.10;;
57395;SDS011;43222;52.912;6.940;2023-07-13T07:48:44;9.48;;;2.90;;
57395;SDS011;43222;52.912;6.940;2023-07-13T07:51:10;13.73;;;2.80;;
57395;SDS011;43222;52.912;6.940;2023-07-13T07:53:37;12.18;;;2.70;;
57395;SDS011;43222;52.912;6.940;2023-07-13T07:56:03;10.45;;;3.00;;
57395;SDS011;43222;52.912;6.940;2023-07-13T07:58:29;11.43;;;2.50;;
57395;SDS011;43222;52.912;6.940;2023-07-13T08:01:01;14.57;;;3.22;;
57395;SDS011;43222;52.912;6.940;2023-07-13T08:03:27;12.85;;;2.88;;
57395;SDS011;43222;52.912;6.940;2023-07-13T08:05:53;12.25;;;3.05;;
57395;SDS011;43222;52.912;6.940;2023-07-13T08:08:20;9.18;;;2.70;;
57395;SDS011;43222;52.912;6.940;2023-07-13T08:10:46;11.18;;;2.90;;
57395;SDS011;43222;52.912;6.940;2023-07-13T08:13:12;7.95;;;2.65;;
57395;SDS011;43222;52.912;6.940;2023-07-13T08:15:38;11.10;;;2.60;;
57395;SDS011;43222;52.912;6.940;2023-07-13T08:18:05;10.35;;;2.70;;
57395;SDS011;43222;52.912;6.940;2023-07-13T08:20:33;12.57;;;2.85;;
57395;SDS011;43222;52.912;6.940;2023-07-13T08:22:59;10.95;;;2.92;;
57395;SDS011;43222;52.912;6.940;2023-07-13T08:25:25;10.25;;;3.08;;
57395;SDS011;43222;52.912;6.940;2023-07-13T08:27:51;12.57;;;2.78;;
57395;SDS011;43222;52.912;6.940;2023-07-13T08:30:17;12.50;;;3.28;;
57395;SDS011;43222;52.912;6.940;2023-07-13T08:32:43;12.30;;;3.30;;
57395;SDS011;43222;52.912;6.940;2023-07-13T08:35:09;11.40;;;3.22;;
57395;SDS011;43222;52.912;6.940;2023-07-13T08:37:36;12.13;;;3.03;;
57395;SDS011;43222;52.912;6.940;2023-07-13T08:40:02;11.80;;;3.45;;
57395;SDS011;43222;52.912;6.940;2023-07-13T08:45:17;10.38;;;3.38;;
57395;SDS011;43222;52.912;6.940;2023-07-13T08:47:47;11.73;;;3.20;;
57395;SDS011;43222;52.912;6.940;2023-07-13T08:50:15;12.82;;;3.53;;
57395;SDS011;43222;52.912;6.940;2023-07-13T08:52:43;11.30;;;2.83;;
57395;SDS011;43222;52.912;6.940;2023-07-13T08:57:39;13.00;;;3.35;;
57395;SDS011;43222;52.912;6.940;2023-07-13T09:00:10;11.07;;;3.60;;
57395;SDS011;43222;52.912;6.940;2023-07-13T09:02:49;13.80;;;3.88;;
57395;SDS011;43222;52.912;6.940;2023-07-13T09:05:18;12.45;;;3.10;;
57395;SDS011;43222;52.912;6.940;2023-07-13T09:10:17;15.65;;;3.65;;
57395;SDS011;43222;52.912;6.940;2023-07-13T09:15:32;10.50;;;3.30;;
57395;SDS011;43222;52.912;6.940;2023-07-13T09:18:08;8.82;;;2.88;;
57395;SDS011;43222;52.912;6.940;2023-07-13T09:20:44;10.25;;;3.25;;
57395;SDS011;43222;52.912;6.940;2023-07-13T09:23:18;10.38;;;3.13;;
57395;SDS011;43222;52.912;6.940;2023-07-13T09:25:45;11.45;;;3.30;;
57395;SDS011;43222;52.912;6.940;2023-07-13T09:28:14;8.30;;;2.53;;
57395;SDS011;43222;52.912;6.940;2023-07-13T09:33:26;8.88;;;2.40;;
57395;SDS011;43222;52.912;6.940;2023-07-13T09:35:55;7.75;;;2.58;;
57395;SDS011;43222;52.912;6.940;2023-07-13T09:38:23;9.57;;;2.88;;
57395;SDS011;43222;52.912;6.940;2023-07-13T09:43:19;7.68;;;2.42;;
57395;SDS011;43222;52.912;6.940;2023-07-13T09:45:46;10.43;;;2.67;;
57395;SDS011;43222;52.912;6.940;2023-07-13T09:48:13;10.57;;;3.10;;
57395;SDS011;43222;52.912;6.940;2023-07-13T09:50:40;7.28;;;2.65;;
57395;SDS011;43222;52.912;6.940;2023-07-13T09:53:13;9.45;;;2.83;;
57395;SDS011;43222;52.912;6.940;2023-07-13T09:55:40;7.75;;;2.55;;
57395;SDS011;43222;52.912;6.940;2023-07-13T09:58:14;8.07;;;2.55;;
57395;SDS011;43222;52.912;6.940;2023-07-13T10:00:41;6.57;;;2.08;;
57395;SDS011;43222;52.912;6.940;2023-07-13T10:05:42;5.25;;;2.00;;
57395;SDS011;43222;52.912;6.940;2023-07-13T10:10:44;6.90;;;1.90;;
57395;SDS011;43222;52.912;6.940;2023-07-13T10:13:27;8.38;;;1.70;;
57395;SDS011;43222;52.912;6.940;2023-07-13T10:15:54;6.15;;;1.30;;
57395;SDS011;43222;52.912;6.940;2023-07-13T10:18:21;5.22;;;1.50;;
57395;SDS011;43222;52.912;6.940;2023-07-13T10:20:48;7.85;;;1.73;;
57395;SDS011;43222;52.912;6.940;2023-07-13T10:23:22;4.00;;;1.40;;
57395;SDS011;43222;52.912;6.940;2023-07-13T10:25:55;5.85;;;1.50;;
57395;SDS011;43222;52.912;6.940;2023-07-13T10:28:33;5.00;;;1.42;;
57395;SDS011;43222;52.912;6.940;2023-07-13T10:31:01;3.78;;;1.40;;
57395;SDS011;43222;52.912;6.940;2023-07-13T10:33:28;4.07;;;1.58;;
57395;SDS011;43222;52.912;6.940;2023-07-13T10:35:56;5.13;;;1.50;;
57395;SDS011;43222;52.912;6.940;2023-07-13T10:38:27;3.80;;;1.23;;
57395;SDS011;43222;52.912;6.940;2023-07-13T10:41:03;4.97;;;1.20;;
57395;SDS011;43222;52.912;6.940;2023-07-13T10:43:34;4.60;;;1.35;;
57395;SDS011;43222;52.912;6.940;2023-07-13T10:46:04;3.60;;;1.23;;
57395;SDS011;43222;52.912;6.940;2023-07-13T10:48:31;3.92;;;1.52;;
57395;SDS011;43222;52.912;6.940;2023-07-13T10:50:59;3.83;;;1.52;;
57395;SDS011;43222;52.912;6.940;2023-07-13T10:53:34;4.95;;;1.80;;
57395;SDS011;43222;52.912;6.940;2023-07-13T11:03:48;5.78;;;1.98;;
57395;SDS011;43222;52.912;6.940;2023-07-13T11:18:45;6.43;;;2.33;;
57395;SDS011;43222;52.912;6.940;2023-07-13T11:23:45;7.18;;;2.53;;
57395;SDS011;43222;52.912;6.940;2023-07-13T11:28:56;7.05;;;2.60;;
57395;SDS011;43222;52.912;6.940;2023-07-13T11:31:22;6.93;;;2.40;;
57395;SDS011;43222;52.912;6.940;2023-07-13T11:33:51;8.98;;;2.78;;
57395;SDS011;43222;52.912;6.940;2023-07-13T11:36:18;7.43;;;2.70;;
57395;SDS011;43222;52.912;6.940;2023-07-13T11:38:58;7.00;;;2.55;;
57395;SDS011;43222;52.912;6.940;2023-07-13T11:41:30;7.55;;;2.53;;
57395;SDS011;43222;52.912;6.940;2023-07-13T11:46:23;6.78;;;1.90;;
57395;SDS011;43222;52.912;6.940;2023-07-13T11:48:50;5.55;;;1.83;;
57395;SDS011;43222;52.912;6.940;2023-07-13T11:51:21;6.00;;;2.42;;
57395;SDS011;43222;52.912;6.940;2023-07-13T11:53:48;6.28;;;2.47;;
57395;SDS011;43222;52.912;6.940;2023-07-13T11:56:15;7.75;;;2.58;;
57395;SDS011;43222;52.912;6.940;2023-07-13T11:58:42;7.18;;;2.70;;
57395;SDS011;43222;52.912;6.940;2023-07-13T12:01:21;4.78;;;1.90;;
57395;SDS011;43222;52.912;6.940;2023-07-13T12:03:47;5.97;;;2.30;;
57395;SDS011;43222;52.912;6.940;2023-07-13T12:06:25;6.28;;;2.30;;
57395;SDS011;43222;52.912;6.940;2023-07-13T12:08:55;4.88;;;1.98;;
57395;SDS011;43222;52.912;6.940;2023-07-13T12:11:21;5.05;;;1.90;;
57395;SDS011;43222;52.912;6.940;2023-07-13T12:13:47;4.93;;;1.80;;
57395;SDS011;43222;52.912;6.940;2023-07-13T12:16:15;6.20;;;1.83;;
57395;SDS011;43222;52.912;6.940;2023-07-13T12:18:41;4.53;;;1.70;;
57395;SDS011;43222;52.912;6.940;2023-07-13T12:21:12;6.53;;;2.20;;
57395;SDS011;43222;52.912;6.940;2023-07-13T12:23:39;6.63;;;1.95;;
57395;SDS011;43222;52.912;6.940;2023-07-13T12:26:06;5.68;;;2.03;;
57395;SDS011;43222;52.912;6.940;2023-07-13T12:28:48;5.55;;;2.00;;
57395;SDS011;43222;52.912;6.940;2023-07-13T12:31:25;6.55;;;2.00;;
57395;SDS011;43222;52.912;6.940;2023-07-13T12:33:58;6.18;;;2.10;;
57395;SDS011;43222;52.912;6.940;2023-07-13T12:36:25;5.80;;;2.08;;
57395;SDS011;43222;52.912;6.940;2023-07-13T12:38:52;7.63;;;2.42;;
57395;SDS011;43222;52.912;6.940;2023-07-13T12:41:18;9.02;;;2.50;;
57395;SDS011;43222;52.912;6.940;2023-07-13T12:43:45;7.85;;;2.35;;
57395;SDS011;43222;52.912;6.940;2023-07-13T12:46:17;7.80;;;2.58;;
57395;SDS011;43222;52.912;6.940;2023-07-13T12:48:43;6.65;;;2.45;;
57395;SDS011;43222;52.912;6.940;2023-07-13T12:51:13;7.13;;;2.45;;
57395;SDS011;43222;52.912;6.940;2023-07-13T12:53:40;9.93;;;2.30;;
57395;SDS011;43222;52.912;6.940;2023-07-13T12:56:08;8.82;;;2.53;;
57395;SDS011;43222;52.912;6.940;2023-07-13T12:58:38;142.20;;;8.50;;
57395;SDS011;43222;52.912;6.940;2023-07-13T13:01:09;7.18;;;2.40;;
57395;SDS011;43222;52.912;6.940;2023-07-13T13:03:44;8.07;;;2.55;;
57395;SDS011;43222;52.912;6.940;2023-07-13T13:08:51;7.85;;;2.13;;
57395;SDS011;43222;52.912;6.940;2023-07-13T13:11:18;9.10;;;2.20;;
57395;SDS011;43222;52.912;6.940;2023-07-13T13:13:44;6.30;;;1.98;;
57395;SDS011;43222;52.912;6.940;2023-07-13T13:16:17;7.53;;;2.08;;
57395;SDS011;43222;52.912;6.940;2023-07-13T13:18:44;5.75;;;1.50;;
57395;SDS011;43222;52.912;6.940;2023-07-13T13:21:11;5.93;;;1.75;;
57395;SDS011;43222;52.912;6.940;2023-07-13T13:23:37;5.30;;;1.40;;
57395;SDS011;43222;52.912;6.940;2023-07-13T13:26:05;4.53;;;1.40;;
57395;SDS011;43222;52.912;6.940;2023-07-13T13:28:34;7.13;;;1.42;;
57395;SDS011;43222;52.912;6.940;2023-07-13T13:31:00;6.38;;;1.55;;
57395;SDS011;43222;52.912;6.940;2023-07-13T13:33:26;5.78;;;1.52;;
57395;SDS011;43222;52.912;6.940;2023-07-13T13:35:52;5.93;;;1.33;;
57395;SDS011;43222;52.912;6.940;2023-07-13T13:38:20;7.38;;;1.40;;
57395;SDS011;43222;52.912;6.940;2023-07-13T13:40:46;4.85;;;1.40;;
57395;SDS011;43222;52.912;6.940;2023-07-13T13:43:23;6.75;;;1.50;;
57395;SDS011;43222;52.912;6.940;2023-07-13T13:45:53;10.15;;;1.80;;
57395;SDS011;43222;52.912;6.940;2023-07-13T13:48:26;4.13;;;1.17;;
57395;SDS011;43222;52.912;6.940;2023-07-13T13:50:56;6.03;;;1.30;;
57395;SDS011;43222;52.912;6.940;2023-07-13T13:53:22;4.78;;;1.35;;
57395;SDS011;43222;52.912;6.940;2023-07-13T13:55:51;4.82;;;1.20;;
57395;SDS011;43222;52.912;6.940;2023-07-13T13:58:20;5.82;;;1.38;;
57395;SDS011;43222;52.912;6.940;2023-07-13T14:00:47;5.70;;;1.17;;
57395;SDS011;43222;52.912;6.940;2023-07-13T14:03:18;4.60;;;1.20;;
57395;SDS011;43222;52.912;6.940;2023-07-13T14:05:45;4.60;;;1.27;;
57395;SDS011;43222;52.912;6.940;2023-07-13T14:08:15;3.67;;;1.00;;
57395;SDS011;43222;52.912;6.940;2023-07-13T14:10:42;7.15;;;1.65;;
57395;SDS011;43222;52.912;6.940;2023-07-13T14:13:15;5.70;;;1.33;;
57395;SDS011;43222;52.912;6.940;2023-07-13T14:15:42;4.38;;;1.10;;
57395;SDS011;43222;52.912;6.940;2023-07-13T14:18:08;5.13;;;1.10;;
57395;SDS011;43222;52.912;6.940;2023-07-13T14:20:35;6.53;;;1.30;;
57395;SDS011;43222;52.912;6.940;2023-07-13T14:23:04;5.90;;;1.70;;
57395;SDS011;43222;52.912;6.940;2023-07-13T14:25:30;4.78;;;1.50;;
57395;SDS011;43222;52.912;6.940;2023-07-13T14:27:57;5.85;;;1.25;;
57395;SDS011;43222;52.912;6.940;2023-07-13T14:30:24;5.53;;;1.50;;
57395;SDS011;43222;52.912;6.940;2023-07-13T14:32:50;7.20;;;1.63;;
57395;SDS011;43222;52.912;6.940;2023-07-13T14:35:18;5.80;;;1.40;;
57395;SDS011;43222;52.912;6.940;2023-07-13T14:37:45;4.50;;;1.38;;
57395;SDS011;43222;52.912;6.940;2023-07-13T14:40:30;4.07;;;1.00;;
57395;SDS011;43222;52.912;6.940;2023-07-13T14:42:57;5.82;;;1.40;;
57395;SDS011;43222;52.912;6.940;2023-07-13T14:45:23;6.50;;;1.40;;
57395;SDS011;43222;52.912;6.940;2023-07-13T14:47:52;5.65;;;1.23;;
57395;SDS011;43222;52.912;6.940;2023-07-13T14:50:20;6.65;;;1.50;;
57395;SDS011;43222;52.912;6.940;2023-07-13T14:52:46;4.65;;;1.30;;
57395;SDS011;43222;52.912;6.940;2023-07-13T14:55:13;4.35;;;1.23;;
57395;SDS011;43222;52.912;6.940;2023-07-13T14:57:40;7.47;;;1.40;;
57395;SDS011;43222;52.912;6.940;2023-07-13T15:00:12;7.13;;;1.40;;
57395;SDS011;43222;52.912;6.940;2023-07-13T15:02:42;6.40;;;1.25;;
57395;SDS011;43222;52.912;6.940;2023-07-13T15:05:16;4.80;;;1.48;;
57395;SDS011;43222;52.912;6.940;2023-07-13T15:07:43;6.20;;;1.20;;
57395;SDS011;43222;52.912;6.940;2023-07-13T15:10:22;5.75;;;1.27;;
57395;SDS011;43222;52.912;6.940;2023-07-13T15:12:51;5.22;;;1.45;;
57395;SDS011;43222;52.912;6.940;2023-07-13T15:15:17;5.22;;;1.25;;
57395;SDS011;43222;52.912;6.940;2023-07-13T15:17:44;5.88;;;1.40;;
57395;SDS011;43222;52.912;6.940;2023-07-13T15:20:23;5.75;;;1.33;;
57395;SDS011;43222;52.912;6.940;2023-07-13T15:22:51;7.57;;;1.38;;
57395;SDS011;43222;52.912;6.940;2023-07-13T15:25:18;5.32;;;1.13;;
57395;SDS011;43222;52.912;6.940;2023-07-13T15:27:45;6.40;;;1.35;;
57395;SDS011;43222;52.912;6.940;2023-07-13T15:30:12;6.38;;;1.30;;
57395;SDS011;43222;52.912;6.940;2023-07-13T15:32:39;4.80;;;1.45;;
57395;SDS011;43222;52.912;6.940;2023-07-13T15:35:09;5.55;;;1.58;;
57395;SDS011;43222;52.912;6.940;2023-07-13T15:37:39;5.57;;;1.58;;